createdAt,value
2019-03-31T00:00:32.162Z,196.40
2019-03-31T00:04:43.352Z,194.03
2019-03-31T00:08:53.332Z,201.33
2019-03-31T00:13:03.289Z,208.37
2019-03-31T00:17:14.291Z,198.80
2019-03-31T00:21:25.744Z,197.67
2019-03-31T00:25:36.179Z,199.87
2019-03-31T00:29:47.196Z,204.73
2019-03-31T00:33:57.036Z,193.53
2019-03-31T00:38:06.913Z,194.40
2019-03-31T00:42:16.834Z,197.17
2019-03-31T00:46:27.540Z,194.77
2019-03-31T00:50:38.043Z,198.93
2019-03-31T00:54:48.512Z,190.50
2019-03-31T00:58:58.595Z,191.17
2019-03-31T01:03:09.522Z,192.00
2019-03-31T01:07:19.839Z,195.93
2019-03-31T01:11:30.504Z,187.53
2019-03-31T01:15:40.554Z,190.93
2019-03-31T01:19:52.240Z,193.97
2019-03-31T01:24:02.346Z,196.90
2019-03-31T01:28:12.215Z,194.37
2019-03-31T01:32:22.427Z,188.27
2019-03-31T01:36:32.341Z,185.83
2019-03-31T01:40:42.768Z,189.93
2019-03-31T01:44:52.695Z,187.00
2019-03-31T01:49:02.636Z,188.20
2019-03-31T01:53:12.518Z,192.30
2019-03-31T01:57:22.607Z,192.13
2019-03-31T02:01:33.403Z,193.00
2019-03-31T02:05:45.137Z,192.43
2019-03-31T02:09:56.312Z,198.83
2019-03-31T02:14:06.067Z,188.23
2019-03-31T02:18:15.975Z,192.53
2019-03-31T02:22:25.817Z,191.23
2019-03-31T02:26:35.604Z,194.33
2019-03-31T02:30:46.752Z,192.23
2019-03-31T02:34:58.149Z,189.90
2019-03-31T02:39:09.755Z,195.87
2019-03-31T02:43:21.375Z,194.60
2019-03-31T02:47:31.178Z,194.03
2019-03-31T02:51:41.008Z,201.00
2019-03-31T02:55:51.279Z,196.27
2019-03-31T03:00:02.286Z,195.30
2019-03-31T03:04:13.815Z,189.37
2019-03-31T03:08:23.549Z,187.53
2019-03-31T03:12:35.074Z,188.83
2019-03-31T03:16:44.979Z,190.10
2019-03-31T03:20:54.695Z,193.47
2019-03-31T03:25:06.767Z,193.73
2019-03-31T03:29:18.324Z,190.77
2019-03-31T03:33:28.179Z,193.80
2019-03-31T03:37:38.961Z,187.53
2019-03-31T03:41:48.678Z,197.27
2019-03-31T03:45:58.538Z,189.27
2019-03-31T03:50:09.431Z,210.93
2019-03-31T03:54:19.291Z,189.30
2019-03-31T03:58:29.291Z,188.80
2019-03-31T04:02:39.186Z,189.70
2019-03-31T04:06:48.911Z,190.73
2019-03-31T04:11:10.281Z,186.97
2019-03-31T04:15:20.683Z,190.53
2019-03-31T04:19:30.395Z,189.50
2019-03-31T04:23:40.161Z,192.10
2019-03-31T04:27:50.175Z,188.17
2019-03-31T04:32:00.017Z,191.67
2019-03-31T04:36:09.733Z,187.20
2019-03-31T04:40:19.852Z,189.07
2019-03-31T04:44:29.581Z,191.47
2019-03-31T04:48:39.456Z,189.17
2019-03-31T04:52:49.194Z,192.93
2019-03-31T04:56:58.918Z,191.80
2019-03-31T05:01:08.889Z,195.53
2019-03-31T05:05:18.656Z,189.50
2019-03-31T05:09:30.449Z,191.43
2019-03-31T05:13:40.199Z,193.57
2019-03-31T05:17:50.036Z,189.20
2019-03-31T05:21:59.822Z,205.70
2019-03-31T05:26:09.822Z,193.77
2019-03-31T05:30:21.270Z,193.67
2019-03-31T05:34:31.264Z,198.57
2019-03-31T05:38:41.111Z,200.70
2019-03-31T05:42:51.039Z,200.83
2019-03-31T05:47:02.021Z,199.87
2019-03-31T05:51:12.405Z,207.40
2019-03-31T05:55:22.138Z,202.67
2019-03-31T05:59:31.918Z,205.50
2019-03-31T06:03:42.315Z,204.93
2019-03-31T06:07:52.137Z,204.40
2019-03-31T06:12:03.741Z,203.40
2019-03-31T06:16:13.745Z,207.67
2019-03-31T06:20:25.003Z,204.07
2019-03-31T06:24:36.999Z,213.63
2019-03-31T06:28:46.960Z,205.07
2019-03-31T06:32:56.847Z,204.70
2019-03-31T06:37:06.538Z,207.20
2019-03-31T06:41:16.843Z,204.53
2019-03-31T06:45:26.612Z,208.20
2019-03-31T06:49:37.002Z,207.57
2019-03-31T06:53:46.758Z,211.80
2019-03-31T06:57:56.637Z,211.37
2019-03-31T07:02:06.741Z,215.20
2019-03-31T07:06:16.486Z,213.00
2019-03-31T07:10:26.243Z,206.83
2019-03-31T07:14:36.141Z,223.13
2019-03-31T07:18:45.910Z,215.70
2019-03-31T07:22:55.616Z,208.47
2019-03-31T07:27:05.500Z,223.60
2019-03-31T07:31:15.328Z,209.50
2019-03-31T07:35:25.063Z,216.70
2019-03-31T07:39:35.244Z,210.53
2019-03-31T07:43:45.728Z,212.60
2019-03-31T07:47:55.546Z,214.20
2019-03-31T07:52:05.683Z,217.57
2019-03-31T07:56:16.254Z,214.97
2019-03-31T08:00:29.293Z,211.57
2019-03-31T08:04:39.039Z,208.13
2019-03-31T08:08:49.078Z,209.33
2019-03-31T08:12:58.867Z,223.97
2019-03-31T08:17:08.661Z,208.37
2019-03-31T08:21:18.592Z,211.73
2019-03-31T08:25:28.346Z,188.47
2019-03-31T08:29:38.099Z,211.30
2019-03-31T08:33:49.253Z,210.90
2019-03-31T08:37:58.996Z,209.70
2019-03-31T08:42:08.942Z,207.93
2019-03-31T08:46:19.002Z,207.47
2019-03-31T08:50:28.903Z,214.23
2019-03-31T08:54:38.835Z,212.23
2019-03-31T08:58:49.731Z,222.77
2019-03-31T09:02:59.639Z,213.43
2019-03-31T09:07:09.508Z,209.17
2019-03-31T09:11:20.915Z,226.67
2019-03-31T09:15:30.736Z,207.00
2019-03-31T09:19:40.876Z,214.57
2019-03-31T09:23:50.757Z,222.80
2019-03-31T09:28:00.570Z,192.27
2019-03-31T09:32:10.316Z,220.47
2019-03-31T09:36:19.986Z,210.27
2019-03-31T09:40:29.720Z,208.87
2019-03-31T09:44:39.463Z,217.27
2019-03-31T09:48:49.298Z,216.20
2019-03-31T09:52:59.667Z,223.27
2019-03-31T09:57:10.955Z,213.83
2019-03-31T10:01:21.769Z,210.73
2019-03-31T10:05:32.935Z,205.03
2019-03-31T10:09:42.778Z,211.67
2019-03-31T10:13:53.783Z,213.83
2019-03-31T10:18:04.196Z,208.50
2019-03-31T10:22:13.921Z,212.80
2019-03-31T10:26:31.662Z,210.43
2019-03-31T10:30:36.623Z,218.20
2019-03-31T10:34:46.341Z,212.67
2019-03-31T10:38:56.198Z,211.63
2019-03-31T10:43:06.201Z,208.53
2019-03-31T10:47:16.102Z,210.50
2019-03-31T10:51:27.111Z,210.23
2019-03-31T10:55:37.414Z,215.00
2019-03-31T10:59:47.255Z,212.70
2019-03-31T11:03:56.958Z,207.87
2019-03-31T11:08:06.876Z,205.50
2019-03-31T11:12:16.625Z,207.07
2019-03-31T11:16:27.520Z,203.65
2019-03-31T11:20:37.517Z,212.20
2019-03-31T11:24:47.734Z,212.60
2019-03-31T11:28:57.476Z,212.53
2019-03-31T11:33:07.744Z,204.20
2019-03-31T11:37:17.716Z,208.07
2019-03-31T11:41:27.399Z,203.23
2019-03-31T11:45:38.477Z,206.17
2019-03-31T11:49:48.875Z,209.93
2019-03-31T11:53:58.629Z,198.00
2019-03-31T11:58:08.409Z,205.93
2019-03-31T12:02:27.130Z,208.43
2019-03-31T12:06:29.867Z,208.90
2019-03-31T12:10:39.610Z,203.63
2019-03-31T12:14:59.898Z,201.07
2019-03-31T12:19:00.822Z,197.07
2019-03-31T12:23:12.891Z,208.47
2019-03-31T12:27:22.798Z,205.20
2019-03-31T12:31:32.631Z,204.27
2019-03-31T12:35:44.305Z,200.53
2019-03-31T12:39:54.197Z,200.53
2019-03-31T12:44:03.946Z,197.60
2019-03-31T12:48:15.726Z,195.67
2019-03-31T12:52:25.533Z,199.67
2019-03-31T12:56:37.364Z,195.47
2019-03-31T13:00:51.924Z,196.13
2019-03-31T13:05:03.587Z,200.70
2019-03-31T13:09:16.954Z,194.87
2019-03-31T13:13:26.742Z,191.53
2019-03-31T13:17:36.770Z,186.43
2019-03-31T13:21:46.545Z,189.70
2019-03-31T13:25:56.286Z,186.43
2019-03-31T13:30:08.252Z,186.43
2019-03-31T13:34:17.994Z,192.10
2019-03-31T13:38:27.946Z,189.30
2019-03-31T13:42:37.661Z,187.40
2019-03-31T13:46:47.493Z,190.40
2019-03-31T13:50:57.249Z,187.43
2019-03-31T13:55:07.606Z,184.57
2019-03-31T13:59:17.325Z,184.07
2019-03-31T14:03:27.117Z,181.97
2019-03-31T14:07:38.470Z,181.03
2019-03-31T14:11:50.207Z,183.57
2019-03-31T14:16:00.219Z,185.40
2019-03-31T14:20:10.679Z,183.70
2019-03-31T14:24:20.435Z,184.37
2019-03-31T14:28:31.562Z,187.87
2019-03-31T14:32:41.517Z,200.10
2019-03-31T14:36:51.245Z,187.40
2019-03-31T14:41:02.449Z,182.87
2019-03-31T14:45:15.226Z,187.77
2019-03-31T14:49:25.913Z,185.30
2019-03-31T14:53:36.186Z,199.17
2019-03-31T14:57:45.928Z,188.23
2019-03-31T15:01:55.618Z,184.47
2019-03-31T15:06:08.486Z,181.03
2019-03-31T15:10:18.430Z,186.13
2019-03-31T15:14:28.735Z,185.17
2019-03-31T15:18:38.647Z,191.30
2019-03-31T15:22:51.301Z,179.50
2019-03-31T15:26:59.925Z,186.67
2019-03-31T15:31:09.893Z,187.57
2019-03-31T15:35:19.791Z,184.50
2019-03-31T15:39:29.779Z,184.20
2019-03-31T15:43:40.691Z,185.13
2019-03-31T15:47:50.507Z,183.43
2019-03-31T15:52:01.330Z,196.17
2019-03-31T15:56:11.083Z,183.73
2019-03-31T16:00:21.718Z,184.53
2019-03-31T16:04:34.226Z,178.67
2019-03-31T16:08:46.519Z,178.63
2019-03-31T16:12:56.252Z,182.57
2019-03-31T16:17:07.775Z,177.97
2019-03-31T16:21:17.627Z,176.07
2019-03-31T16:25:31.547Z,178.73
2019-03-31T16:29:43.836Z,176.27
2019-03-31T16:33:53.590Z,173.93
2019-03-31T16:38:05.335Z,173.67
2019-03-31T16:42:19.194Z,176.07
2019-03-31T16:46:29.352Z,171.70
2019-03-31T16:50:41.267Z,176.40
2019-03-31T16:54:52.617Z,175.17
2019-03-31T16:59:01.377Z,170.90
2019-03-31T17:03:10.220Z,173.33
2019-03-31T17:07:20.640Z,179.23
2019-03-31T17:11:30.401Z,188.27
2019-03-31T17:15:40.776Z,177.27
2019-03-31T17:19:50.743Z,175.70
2019-03-31T17:24:00.760Z,175.47
2019-03-31T17:28:11.074Z,174.93
2019-03-31T17:32:21.321Z,174.40
2019-03-31T17:36:30.786Z,179.27
2019-03-31T17:40:39.654Z,176.23
2019-03-31T17:44:50.042Z,177.27
2019-03-31T17:48:59.445Z,182.13
2019-03-31T17:53:08.145Z,181.23
2019-03-31T17:57:18.830Z,179.53
2019-03-31T18:01:29.192Z,177.90
2019-03-31T18:05:38.470Z,173.07
2019-03-31T18:09:47.204Z,174.23
2019-03-31T18:13:55.929Z,176.30
2019-03-31T18:18:04.789Z,189.27
2019-03-31T18:22:16.720Z,188.23
2019-03-31T18:26:25.413Z,174.83
2019-03-31T18:30:34.137Z,170.80
2019-03-31T18:34:42.898Z,173.10
2019-03-31T18:38:51.594Z,179.20
2019-03-31T18:43:00.363Z,175.77
2019-03-31T18:47:11.614Z,176.53
2019-03-31T18:51:20.340Z,175.47
2019-03-31T18:55:42.540Z,173.07
2019-03-31T18:59:55.572Z,174.87
2019-03-31T19:04:17.762Z,172.00
2019-03-31T19:08:44.325Z,175.47
2019-03-31T19:13:12.812Z,175.57
2019-03-31T19:17:30.038Z,183.33
2019-03-31T19:21:59.037Z,175.27
2019-03-31T19:26:18.002Z,177.33
2019-03-31T19:30:45.100Z,175.13
2019-03-31T19:34:58.637Z,181.40
2019-03-31T19:39:13.446Z,179.50
2019-03-31T19:43:23.769Z,183.97
2019-03-31T19:47:36.180Z,174.03
2019-03-31T19:52:06.304Z,173.60
2019-03-31T19:56:18.098Z,170.83
2019-03-31T20:00:44.153Z,168.87
2019-03-31T20:04:54.455Z,167.33
2019-03-31T20:09:10.884Z,167.87
2019-03-31T20:13:29.671Z,166.40
2019-03-31T20:17:56.731Z,168.13
2019-03-31T20:22:21.990Z,174.90
2019-03-31T20:26:35.121Z,167.23
2019-03-31T20:30:46.201Z,165.93
2019-03-31T20:35:02.522Z,166.77
2019-03-31T20:39:29.172Z,171.60
2019-03-31T20:43:42.532Z,174.00
2019-03-31T20:47:52.802Z,167.60
2019-03-31T20:52:02.098Z,167.57
2019-03-31T20:56:12.090Z,165.77
2019-03-31T21:00:20.884Z,168.20
2019-03-31T21:04:29.678Z,171.17
2019-03-31T21:08:38.978Z,162.23
2019-03-31T21:12:47.724Z,166.27
2019-03-31T21:16:56.416Z,166.73
2019-03-31T21:21:05.829Z,171.17
2019-03-31T21:25:14.727Z,166.07
2019-03-31T21:29:26.060Z,171.33
2019-03-31T21:33:34.847Z,164.43
2019-03-31T21:37:43.556Z,164.43
2019-03-31T21:41:52.323Z,165.47
2019-03-31T21:46:01.058Z,170.27
2019-03-31T21:50:11.088Z,168.93
2019-03-31T21:54:19.971Z,165.93
2019-03-31T21:58:30.343Z,165.27
2019-03-31T22:02:39.155Z,161.60
2019-03-31T22:06:47.888Z,176.27
2019-03-31T22:10:57.433Z,171.60
2019-03-31T22:15:06.619Z,169.13
2019-03-31T22:19:15.310Z,171.57
2019-03-31T22:23:24.040Z,166.50
2019-03-31T22:27:33.638Z,170.20
2019-03-31T22:31:43.827Z,173.77
2019-03-31T22:36:10.748Z,171.37
2019-03-31T22:40:19.467Z,177.33
2019-03-31T22:44:28.323Z,170.83
2019-03-31T22:48:39.823Z,167.20
2019-03-31T22:52:52.718Z,172.53
2019-03-31T22:57:01.886Z,170.67
2019-03-31T23:01:12.386Z,173.65
2019-03-31T23:05:22.662Z,169.93
2019-03-31T23:09:34.319Z,168.53
2019-03-31T23:13:41.830Z,162.90
2019-03-31T23:17:50.606Z,162.73
2019-03-31T23:21:59.333Z,173.90
2019-03-31T23:26:10.098Z,179.17
2019-03-31T23:30:18.800Z,169.53
2019-03-31T23:34:27.543Z,164.37
2019-03-31T23:38:36.675Z,169.23
2019-03-31T23:52:39.043Z,158.80
2019-03-31T23:56:47.780Z,162.50
